createdAt,value
2022-10-14T00:00:08.121Z,1
2022-10-14T00:05:08.008Z,1
2022-10-14T00:10:07.726Z,1
2022-10-14T00:15:08.407Z,1
2022-10-14T00:20:08.094Z,1
2022-10-14T00:25:07.878Z,1
2022-10-14T00:30:08.571Z,1
2022-10-14T00:35:08.307Z,1
2022-10-14T00:40:08.023Z,1
2022-10-14T00:45:07.703Z,1
2022-10-14T00:50:08.377Z,1
2022-10-14T00:55:13.707Z,1
2022-10-14T01:00:11.973Z,1
2022-10-14T01:05:07.672Z,1
2022-10-14T01:10:17.017Z,1
2022-10-14T01:15:07.773Z,1
2022-10-14T01:20:08.564Z,1
2022-10-14T01:25:08.285Z,1
2022-10-14T01:30:08.010Z,1
2022-10-14T01:35:12.861Z,1
2022-10-14T01:40:08.577Z,1
2022-10-14T01:45:08.291Z,1
2022-10-14T01:50:08.007Z,1
2022-10-14T01:55:07.701Z,1
2022-10-14T02:00:08.419Z,1
2022-10-14T02:05:08.118Z,1
2022-10-14T02:10:07.843Z,1
2022-10-14T02:15:08.558Z,1
2022-10-14T02:20:08.233Z,1
2022-10-14T02:25:07.957Z,1
2022-10-14T02:30:07.672Z,1
2022-10-14T02:35:08.413Z,1
2022-10-14T02:40:08.143Z,1
2022-10-14T02:45:07.833Z,1
2022-10-14T02:50:08.545Z,1
2022-10-14T02:55:08.267Z,1
2022-10-14T03:00:07.967Z,1
2022-10-14T03:05:07.662Z,1
2022-10-14T03:10:08.359Z,1
2022-10-14T03:15:08.073Z,1
2022-10-14T03:20:07.791Z,1
2022-10-14T03:25:08.488Z,1
2022-10-14T03:30:08.190Z,1
2022-10-14T03:35:07.882Z,1
2022-10-14T03:40:08.574Z,1
2022-10-14T03:45:08.264Z,1
2022-10-14T03:50:07.995Z,1
2022-10-14T03:55:07.689Z,1
2022-10-14T04:00:08.423Z,1
2022-10-14T04:05:02.225Z,1
2022-10-14T04:10:02.064Z,1
2022-10-14T04:15:01.822Z,1
2022-10-14T04:20:02.675Z,1
2022-10-14T04:25:02.456Z,1
2022-10-14T04:30:02.226Z,1
2022-10-14T04:35:02.145Z,1
2022-10-14T04:40:01.965Z,1
2022-10-14T04:45:01.806Z,1
2022-10-14T04:50:02.658Z,1
2022-10-14T04:55:02.597Z,1
2022-10-14T05:00:02.517Z,1
2022-10-14T05:05:02.422Z,1
2022-10-14T05:10:02.383Z,1
2022-10-14T05:15:02.283Z,2
2022-10-14T05:20:02.240Z,2
2022-10-14T05:25:02.161Z,2
2022-10-14T05:30:02.097Z,2
2022-10-14T05:35:01.884Z,12
2022-10-14T05:40:02.866Z,26
2022-10-14T05:45:02.701Z,40
2022-10-14T05:50:02.515Z,132
2022-10-14T05:55:02.347Z,132
2022-10-14T06:00:02.195Z,345
2022-10-14T06:05:02.011Z,381
2022-10-14T06:10:02.061Z,349
2022-10-14T06:15:01.887Z,509
2022-10-14T06:20:02.740Z,509
2022-10-14T06:25:04.504Z,980
2022-10-14T06:30:02.501Z,980
2022-10-14T06:35:02.307Z,902
2022-10-14T06:40:02.237Z,801
2022-10-14T06:45:01.974Z,837
2022-10-14T06:50:01.799Z,877
2022-10-14T06:55:02.744Z,1000
2022-10-14T07:00:02.607Z,1000
2022-10-14T07:05:02.416Z,1000
2022-10-14T07:10:02.232Z,1000
2022-10-14T07:15:02.077Z,1000
2022-10-14T07:20:01.935Z,1000
2022-10-14T07:25:02.756Z,1000
2022-10-14T07:30:02.608Z,1000
2022-10-14T07:35:02.400Z,1000
2022-10-14T07:40:02.241Z,1000
2022-10-14T07:45:02.161Z,3000
2022-10-14T07:50:02.125Z,2000
2022-10-14T07:55:02.136Z,1000
2022-10-14T08:00:02.043Z,1000
2022-10-14T08:05:25.529Z,1000
2022-10-14T08:10:02.155Z,2000
2022-10-14T08:15:01.963Z,2000
2022-10-14T08:20:01.776Z,2000
2022-10-14T08:25:02.548Z,2000
2022-10-14T08:30:04.980Z,2000
2022-10-14T08:35:02.625Z,2000
2022-10-14T08:40:02.472Z,3000
2022-10-14T08:45:02.270Z,3000
2022-10-14T08:50:02.110Z,4000
2022-10-14T08:55:01.966Z,4000
2022-10-14T09:00:01.771Z,4000
2022-10-14T09:05:02.607Z,4000
2022-10-14T09:10:02.436Z,5000
2022-10-14T09:15:02.277Z,5000
2022-10-14T09:20:02.094Z,4000
2022-10-14T09:25:01.881Z,4000
2022-10-14T09:30:02.760Z,6000
2022-10-14T09:35:02.697Z,6000
2022-10-14T09:40:02.558Z,7000
2022-10-14T09:45:02.434Z,7000
2022-10-14T09:50:02.271Z,8000
2022-10-14T09:55:02.197Z,8000
2022-10-14T10:00:02.041Z,4000
2022-10-14T10:05:01.901Z,4000
2022-10-14T10:10:02.821Z,4000
2022-10-14T10:15:02.629Z,4000
2022-10-14T10:20:02.531Z,4000
2022-10-14T10:25:02.403Z,4000
2022-10-14T10:30:02.227Z,4000
2022-10-14T10:35:02.301Z,3000
2022-10-14T10:40:02.225Z,6000
2022-10-14T10:45:02.474Z,5000
2022-10-14T10:50:02.402Z,5000
2022-10-14T10:55:02.296Z,5000
2022-10-14T11:00:02.168Z,3000
2022-10-14T11:05:02.818Z,2000
2022-10-14T11:10:02.614Z,5000
2022-10-14T11:15:02.421Z,7000
2022-10-14T11:20:02.282Z,6000
2022-10-14T11:25:02.177Z,7000
2022-10-14T11:30:02.022Z,4000
2022-10-14T11:35:01.838Z,2000
2022-10-14T11:40:02.575Z,2000
2022-10-14T11:45:02.374Z,3000
2022-10-14T11:50:02.167Z,6000
2022-10-14T11:55:02.012Z,6000
2022-10-14T12:00:01.810Z,7000
2022-10-14T12:05:02.705Z,6000
2022-10-14T12:10:02.810Z,8000
2022-10-14T12:15:12.607Z,5000
2022-10-14T12:20:02.447Z,6000
2022-10-14T12:25:02.313Z,7000
2022-10-14T12:30:02.226Z,9000
2022-10-14T12:35:02.074Z,9000
2022-10-14T12:40:01.861Z,8000
2022-10-14T12:45:02.727Z,5000
2022-10-14T12:50:02.544Z,4000
2022-10-14T12:55:02.506Z,3000
2022-10-14T13:00:02.406Z,6000
2022-10-14T13:05:02.415Z,5000
2022-10-14T13:10:02.385Z,6000
2022-10-14T13:15:02.312Z,6000
2022-10-14T13:20:02.226Z,4000
2022-10-14T13:25:02.071Z,4000
2022-10-14T13:30:02.026Z,5000
2022-10-14T13:35:11.927Z,4000
2022-10-14T13:40:02.775Z,4000
2022-10-14T13:45:02.651Z,1000
2022-10-14T13:50:02.431Z,1000
2022-10-14T13:55:02.364Z,2000
2022-10-14T14:00:38.995Z,2000
2022-10-14T14:05:02.758Z,3000
2022-10-14T14:10:02.710Z,3000
2022-10-14T14:15:02.516Z,2000
2022-10-14T14:20:02.413Z,3000
2022-10-14T14:25:12.608Z,2000
2022-10-14T14:30:02.619Z,1000
2022-10-14T14:35:02.409Z,2000
2022-10-14T14:40:02.254Z,3000
2022-10-14T14:45:02.080Z,4000
2022-10-14T14:50:25.546Z,3000
2022-10-14T14:55:02.608Z,2000
2022-10-14T15:00:02.476Z,2000
2022-10-14T15:05:02.334Z,2000
2022-10-14T15:10:02.152Z,2000
2022-10-14T15:15:03.877Z,2000
2022-10-14T15:20:02.793Z,2000
2022-10-14T15:25:02.668Z,1000
2022-10-14T15:30:02.499Z,2000
2022-10-14T15:35:02.320Z,2000
2022-10-14T15:40:02.174Z,1000
2022-10-14T15:45:02.126Z,1000
2022-10-14T15:50:02.133Z,728
2022-10-14T15:55:02.057Z,535
2022-10-14T16:00:02.283Z,606
2022-10-14T16:05:20.330Z,317
2022-10-14T16:10:02.805Z,215
2022-10-14T16:15:02.834Z,620
2022-10-14T16:20:02.826Z,812
2022-10-14T16:25:02.647Z,812
2022-10-14T16:30:02.640Z,583
2022-10-14T16:35:02.535Z,347
2022-10-14T16:40:02.487Z,122
2022-10-14T16:45:02.731Z,76
2022-10-14T16:50:02.555Z,70
2022-10-14T16:55:02.348Z,43
2022-10-14T17:00:02.305Z,34
2022-10-14T17:05:02.254Z,22
2022-10-14T17:10:02.163Z,10
2022-10-14T17:15:01.978Z,10
2022-10-14T17:20:01.841Z,2
2022-10-14T17:25:02.699Z,2
2022-10-14T17:30:02.466Z,1
2022-10-14T17:35:02.296Z,1
2022-10-14T17:40:02.197Z,1
2022-10-14T17:45:02.007Z,1
2022-10-14T17:50:01.942Z,1
2022-10-14T17:55:02.740Z,1
2022-10-14T18:00:05.276Z,1
2022-10-14T18:05:02.114Z,1
2022-10-14T18:10:01.941Z,1
2022-10-14T18:15:02.750Z,1
2022-10-14T18:20:04.534Z,1
2022-10-14T18:25:02.435Z,1
2022-10-14T18:30:02.428Z,1
2022-10-14T18:35:02.373Z,1
2022-10-14T18:40:02.316Z,1
2022-10-14T18:45:02.293Z,1
2022-10-14T18:55:02.157Z,1
2022-10-14T19:00:02.131Z,1
2022-10-14T19:05:02.028Z,1
2022-10-14T19:10:01.807Z,1
2022-10-14T19:15:02.523Z,1
2022-10-14T19:20:02.487Z,1
2022-10-14T19:25:02.312Z,1
2022-10-14T19:30:02.333Z,1
2022-10-14T19:35:02.177Z,1
2022-10-14T19:40:01.929Z,1
2022-10-14T19:45:02.768Z,1
2022-10-14T19:50:02.631Z,1
2022-10-14T19:55:02.646Z,1
2022-10-14T20:00:02.607Z,1
2022-10-14T20:05:02.471Z,1
2022-10-14T20:10:03.010Z,1
2022-10-14T20:15:02.046Z,1
2022-10-14T20:20:01.852Z,1
2022-10-14T20:25:02.606Z,1
2022-10-14T20:30:02.476Z,1
2022-10-14T20:35:15.356Z,1
2022-10-14T20:40:08.075Z,1
2022-10-14T20:45:07.809Z,1
2022-10-14T20:50:08.552Z,1
2022-10-14T20:55:08.283Z,1
2022-10-14T21:00:07.978Z,1
2022-10-14T21:05:07.699Z,1
2022-10-14T21:10:08.401Z,1
2022-10-14T21:15:08.143Z,1
2022-10-14T21:20:07.853Z,1
2022-10-14T21:25:08.572Z,1
2022-10-14T21:30:08.325Z,1
2022-10-14T21:35:08.223Z,1
2022-10-14T21:40:07.928Z,1
2022-10-14T21:45:08.647Z,1
2022-10-14T21:50:08.357Z,1
2022-10-14T21:55:08.071Z,1
2022-10-14T22:00:07.866Z,1
2022-10-14T22:05:08.596Z,1
2022-10-14T22:10:08.311Z,1
2022-10-14T22:15:08.014Z,1
2022-10-14T22:20:07.742Z,1
2022-10-14T22:25:08.422Z,1
2022-10-14T22:30:08.105Z,1
2022-10-14T22:35:07.818Z,1
2022-10-14T22:40:08.559Z,1
2022-10-14T22:45:08.248Z,1
2022-10-14T22:50:07.944Z,1
2022-10-14T22:55:08.651Z,1
2022-10-14T23:01:02.147Z,1
2022-10-14T23:05:07.856Z,1
2022-10-14T23:10:08.337Z,1
2022-10-14T23:15:08.052Z,1
2022-10-14T23:20:07.767Z,1
2022-10-14T23:25:08.482Z,1
2022-10-14T23:30:08.160Z,1
2022-10-14T23:35:07.892Z,1
2022-10-14T23:40:08.661Z,1
2022-10-14T23:45:08.404Z,1
2022-10-14T23:50:08.167Z,1
2022-10-14T23:55:07.848Z,1
